TimeEST,TemperatureF,Dew PointF,Humidity,Sea Level PressureIn,VisibilityMPH,Wind Direction,Wind SpeedMPH,Gust SpeedMPH,PrecipitationIn,Events,Conditions,WindDirDegrees,DateUTC
12:55 AM,36.0,19.9,52,30.21,10.0,WSW,20.7,26.5,N/A,,Overcast,250,2012-11-28 05:55:00
1:55 AM,36.0,21.0,55,30.20,10.0,West,11.5,26.5,N/A,,Overcast,270,2012-11-28 06:55:00
2:55 AM,34.0,25.0,70,30.22,7.0,WNW,13.8,21.9,0.00,Snow,Light Snow,290,2012-11-28 07:55:00
3:02 AM,33.8,26.6,75,30.20,3.0,WNW,11.5,21.9,0.00,Snow,Light Snow,290,2012-11-28 08:02:00
3:08 AM,33.8,26.6,75,30.20,1.8,WNW,11.5,-,0.00,Snow,Light Snow,290,2012-11-28 08:08:00
3:20 AM,32.0,28.4,87,30.20,1.0,WNW,9.2,-,0.01,Snow,Light Snow,300,2012-11-28 08:20:00
3:41 AM,32.0,28.4,87,30.20,3.0,WNW,6.9,-,0.01,Snow,Light Snow,290,2012-11-28 08:41:00
3:55 AM,33.1,28.0,82,30.22,7.0,West,6.9,-,0.01,Snow,Light Snow,280,2012-11-28 08:55:00
4:48 AM,35.6,24.8,65,30.19,10.0,WNW,10.4,20.7,N/A,,Overcast,290,2012-11-28 09:48:00
4:55 AM,35.1,24.1,64,30.22,10.0,WNW,12.7,-,N/A,,Overcast,300,2012-11-28 09:55:00
5:55 AM,36.0,24.1,62,30.24,10.0,WNW,10.4,21.9,N/A,,Overcast,300,2012-11-28 10:55:00
6:55 AM,35.1,24.1,64,30.25,10.0,NW,10.4,-,N/A,,Overcast,310,2012-11-28 11:55:00
7:30 AM,33.8,24.8,70,30.24,10.0,WNW,5.8,-,N/A,,Mostly Cloudy,300,2012-11-28 12:30:00
7:55 AM,35.1,25.0,67,30.27,10.0,WNW,5.8,-,N/A,,Overcast,300,2012-11-28 12:55:00
8:55 AM,35.1,24.1,64,30.29,10.0,WNW,9.2,-,N/A,,Mostly Cloudy,300,2012-11-28 13:55:00
9:55 AM,36.0,25.0,64,30.31,10.0,NW,9.2,-,N/A,,Mostly Cloudy,310,2012-11-28 14:55:00
10:55 AM,36.0,24.1,62,30.33,10.0,WNW,15.0,-,N/A,,Mostly Cloudy,290,2012-11-28 15:55:00
11:55 AM,36.0,23.0,59,30.32,10.0,NW,11.5,-,N/A,,Mostly Cloudy,310,2012-11-28 16:55:00
12:55 PM,36.0,23.0,59,30.32,10.0,WNW,13.8,20.7,N/A,,Mostly Cloudy,300,2012-11-28 17:55:00
1:55 PM,37.0,24.1,59,30.32,10.0,NW,15.0,19.6,N/A,,Mostly Cloudy,310,2012-11-28 18:55:00
2:55 PM,36.0,23.0,59,30.32,10.0,WNW,11.5,-,N/A,,Mostly Cloudy,300,2012-11-28 19:55:00
3:11 PM,37.4,24.8,60,30.29,10.0,West,12.7,-,N/A,,Scattered Clouds,270,2012-11-28 20:11:00
3:55 PM,36.0,23.0,59,30.31,10.0,West,6.9,-,N/A,,Scattered Clouds,280,2012-11-28 20:55:00
4:55 PM,35.1,23.0,61,30.32,10.0,West,8.1,-,N/A,,Scattered Clouds,270,2012-11-28 21:55:00
5:55 PM,35.1,24.1,64,30.31,10.0,WSW,8.1,-,N/A,,Scattered Clouds,240,2012-11-28 22:55:00
6:55 PM,35.1,24.1,64,30.30,10.0,WSW,9.2,-,N/A,,Partly Cloudy,240,2012-11-28 23:55:00
7:55 PM,36.0,25.0,64,30.30,10.0,WSW,3.5,-,N/A,,Clear,250,2012-11-29 00:55:00
8:55 PM,39.9,24.1,53,30.29,10.0,West,9.2,18.4,N/A,,Clear,260,2012-11-29 01:55:00
9:55 PM,39.9,24.1,53,30.28,10.0,WSW,8.1,17.3,N/A,,Clear,250,2012-11-29 02:55:00
10:55 PM,41.0,25.0,53,30.27,10.0,WSW,9.2,-,N/A,,Clear,240,2012-11-29 03:55:00
11:55 PM,42.1,27.0,55,30.26,10.0,WSW,13.8,19.6,N/A,,Clear,240,2012-11-29 04:55:00